Laurence M. Gould — WCX7445 — position and weather

sailwx.info

Track history (hours):
 
Tides and Currents Weather Stations Pressure Air Temp Water Temp Dewpoint Dewpoint Depression Visibility Wind Speed Wind Dir Waves Ship Positions

Oceanographic research ship Laurence M. Gould (USA)

Detailed information on ship capabilities available from University of Delaware's Ocean Information Center.

Owner: Offshore Service Vessels LLC, GALLIANO, LA. More information available from US FCC via Universal Licensing System and Coast Guard Vessel Documentation Center.

Last reported at 2015-May-27 20:00 UTC. Time now 2015-May-27 23:53 UTC.
Position S 64°42' W 064°00'.

Type: Other ship. MMSI: 368138000.

Wind from 200 at 5 knots

Barometer 1001.2 mb
Air temperature -3.9 ° C
Dewpoint -6.2 ° C

Date/timePositionNaut miles runAvg speedWind from/ knotsBaromVisibWave heightAir tempDewpointWater temp
2015-May-27 20:00S 64°42' W 064°00'0 0.0 200 / 51001.2 -3.9-6.2
2015-May-27 17:00S 64°42' W 064°00'0 0.0 220 / 5994.4 -3.7-6.9
2015-May-27 15:00S 64°42' W 064°00'0 0.0 230 / 4993.3 -3.8-6.9-1.0
2015-May-27 13:00S 64°42' W 064°00'6 3.0 220 / 4992.2 -4.1-7.3-1.0
2015-May-27 11:00S 64°48' W 064°00'3 2.6 260 / 10989.4 -4.5-7.3-0.8
2015-May-27 10:00S 64°48' W 063°54'0 0.0 260 / 7989.4 -4.6-7.3-0.7
2015-May-27 07:00S 64°48' W 063°54'3 2.6 230 / 6991.2 -3.7-7.0-0.7
2015-May-27 06:00S 64°48' W 064°00'0 0.0 260 / 7990.4 -3.8-7.1-0.8
2015-May-27 04:00S 64°48' W 064°00'18 1.8 260 / 6991.7 -3.4-7.4-0.8
2015-May-26 18:00S 65°06' W 064°06'7 3.3 080 / 7983.6 -4.6-8.8-1.5
2015-May-26 16:00S 65°12' W 064°12'0 0.0 060 / 5984.9 -5.2-8.7-1.3
2015-May-26 14:00S 65°12' W 064°12'0 0.0 050 / 5980.9 -5.4-8.6-1.3
2015-May-26 12:00S 65°12' W 064°12'0 0.0 040 / 4979.6 -6.0-9.2-1.0
2015-May-26 10:00S 65°12' W 064°12'0 0.0 060 / 3979.3 -5.8-9.9-1.3
2015-May-26 08:00S 65°12' W 064°12'0 0.0 060 / 5979.0 -5.9-10.0-1.4
2015-May-26 07:00S 65°12' W 064°12'0 0.0 050 / 5978.8 -5.9-9.3-1.3
2015-May-26 04:00S 65°12' W 064°12'0 0.0 200 / 6981.8 -3.9-8.6-1.4
2015-May-26 03:00S 65°12' W 064°12'8 3.9 110 / 3978.2 -5.2-9.5-1.6
2015-May-26 01:00S 65°06' W 064°00'8 2.6 020 / 2978.8 -4.9-9.9-1.5
2015-May-25 22:00S 65°00' W 063°48'19 4.7 250 / 4982.4 -3.3-9.4-1.1
2015-May-25 18:00S 64°42' W 064°00'0 0.0 210 / 7966.0 -3.0-7.3
2015-May-25 14:00S 64°42' W 064°00'0 0.0 230 / 7964.3 -3.3-7.9-0.6
2015-May-25 11:00S 64°42' W 064°00'0 0.0 190 / 4962.2 -3.3 -0.6
2015-May-25 09:00S 64°42' W 064°00'0 0.0 210 / 12963.1 -3.6 -0.6
2015-May-25 07:00S 64°42' W 064°00'0 0.0 230 / 8963.4 -3.2 -0.6
2015-May-25 05:00S 64°42' W 064°00'0 0.0 130 / 16962.0 -4.2 -0.6
2015-May-25 04:00S 64°42' W 064°00'0 0.0 130 / 15960.8 -4.5 -0.6
2015-May-25 01:00S 64°42' W 064°00'0 0.0 160 / 8954.8 -6.3 -0.6
2015-May-25 00:00S 64°42' W 064°00'0 0.0 160 / 8953.8 -6.6 -0.6
2015-May-24 22:00S 64°42' W 064°00'26 2.3 130 / 13952.3 -7.2 -0.6
2015-May-24 11:00S 64°42' W 063°00'0 0.0 230 / 6947.7 -6.6 -0.7
2015-May-24 08:00S 64°42' W 063°00'3 0.6 240 / 5946.7 -7.9 -0.7
2015-May-24 04:00S 64°42' W 062°54'0 0.0 120 / 23945.3 -8.3 -0.9
2015-May-24 02:00S 64°42' W 062°54'0 0.0 120 / 18946.0 -7.1 -0.8
2015-May-24 01:00S 64°42' W 062°54'36 6.0 120 / 18944.8 -8.1 -0.8
2015-May-23 19:00S 64°06' W 062°48'3 0.9 170 / 11950.0 -5.6 -0.3
2015-May-23 16:00S 64°06' W 062°42'12 4.1 080 / 13949.6 -5.9 -0.4
2015-May-23 13:00S 63°54' W 062°36'3 2.6 230 / 8951.2 -6.0 -0.7
2015-May-23 12:00S 63°54' W 062°42'0 0.0 090 / 14950.0 -5.2 -0.6
2015-May-23 08:00S 63°54' W 062°42'5 5.3 250 / 10951.4 -5.7 -0.6
2015-May-23 07:00S 63°54' W 062°54'3 0.4 230 / 12951.6 -5.4 -0.3
2015-May-23 01:00S 63°54' W 062°48'3 1.3 240 / 37952.9 -4.7 -0.5
2015-May-22 23:00S 63°54' W 062°42'6 6.0 240 / 32954.9 -4.1 -0.4
2015-May-22 22:00S 63°48' W 062°42'12 4.0 230 / 23955.9 -2.9 -0.4
2015-May-22 19:00S 64°00' W 062°42'6 6.0 030 / 17953.3 -3.9 -0.3
2015-May-22 18:00S 64°06' W 062°42'0 0.0 010 / 14954.5 -4.3 -0.5
2015-May-22 16:00S 64°06' W 062°42'12 4.0 030 / 11955.5 -3.7 -0.6
2015-May-22 13:00S 63°54' W 062°42'24 8.0 090 / 16953.3 -4.0 -0.3
2015-May-22 10:00S 63°30' W 062°42'3 2.7 360 / 5958.6 -1.6 -0.0
2015-May-22 09:00S 63°30' W 062°36'6 1.5 060 / 15958.7 -1.9 -0.1
2015-May-22 05:00S 63°24' W 062°36'0 0.0 060 / 12958.2 -2.5 -0.1
2015-May-21 20:00S 63°24' W 062°36'6 6.0 010 / 13957.5 -1.8 -0.1
2015-May-21 19:00S 63°30' W 062°36'6 2.0 040 / 12957.0 -1.5 -0.0
2015-May-21 16:00S 63°24' W 062°36'3 2.7 010 / 14956.3 -2.6 -0.1
2015-May-21 15:00S 63°24' W 062°42'7 3.3 040 / 15956.6 -2.3 -0.0
2015-May-21 13:00S 63°30' W 062°36'3 0.9 090 / 13962.6 -0.4 -0.0
2015-May-21 10:00S 63°30' W 062°42'0 0.0 080 / 21964.8 -0.4 -0.0
2015-May-21 07:00S 63°30' W 062°42'1212.3 100 / 26967.9 -1.1 -0.0
2015-May-21 06:00S 63°42' W 062°48'18 4.5 090 / 26968.0 -1.2 -0.1
2015-May-21 02:00S 64°00' W 062°54'0 0.0 070 / 20983.4 -0.6 -0.1
2015-May-21 01:00S 64°00' W 062°54'36 4.5 140 / 12986.9 -0.8 -0.2
2015-May-20 17:00S 64°36' W 062°54'10 9.8 060 / 34990.0 -2.7 -0.4
2015-May-20 16:00S 64°42' W 063°12'21 6.8 060 / 38986.0 -3.5 -0.1
2015-May-20 13:00S 64°42' W 064°00'0 0.0 150 / 4987.1 -2.3 -0.3
2015-May-20 12:00S 64°42' W 064°00'0 0.0 080 / 2988.9 -3.6 -0.3
2015-May-20 10:00S 64°42' W 064°00'0 0.0 090 / 2992.0 -3.9 -0.3
2015-May-20 07:00S 64°42' W 064°00'0 0.0 010 / 4996.4 -5.0 -0.3
2015-May-20 04:00S 64°42' W 064°00'0 0.0 060 / 4999.8 -5.5 -0.3
2015-May-20 03:00S 64°42' W 064°00'10 0.6 030 / 61000.4 -5.9 -0.3
2015-May-19 10:00S 64°48' W 063°42'24 7.9 270 / 22998.0 -3.6 -0.4
2015-May-19 07:00S 64°36' W 062°54'29 9.8 240 / 26994.6 -2.5 -0.6
2015-May-19 04:00S 64°18' W 062°00'3310.9 230 / 24991.9 -1.9 -0.6
2015-May-19 01:00S 63°48' W 061°30'7 6.6 240 / 13990.8 -2.2 -1.0
2015-May-19 00:00S 63°42' W 061°24'4310.8 250 / 21991.5 -3.1 -0.9
2015-May-18 20:00S 63°00' W 061°48'1313.2 240 / 24991.9 -3.0 -0.1
2015-May-18 19:00S 62°48' W 062°00'20 9.9 230 / 21991.8 -2.9 -0.0
2015-May-18 17:00S 62°30' W 062°18'19 9.4 240 / 20992.3 -2.5 0.1
2015-May-18 15:00S 62°12' W 062°30'18 9.1 250 / 27993.5 -2.3 -0.1
2015-May-18 13:00S 61°54' W 062°36'18 9.1 250 / 28994.0 -2.1 -0.1
2015-May-18 11:00S 61°36' W 062°42'36 9.1 250 / 28993.4 -1.7 -0.1
2015-May-18 07:00S 61°00' W 062°54'18 9.1 260 / 34991.7 -1.1 0.4
2015-May-18 05:00S 60°42' W 063°00'4310.7 260 / 30990.6 -0.6 0.3
2015-May-18 01:00S 60°00' W 063°18'24 8.1 280 / 27988.8 0.2 0.3
2015-May-17 22:00S 59°36' W 063°24'1212.4 260 / 29987.5 0.4 0.9
2015-May-17 21:00S 59°24' W 063°30'   260 / 27987.0 0.4 0.8
Track history (hours):
 
Tides and Currents Weather Stations Pressure Air Temp Water Temp Dewpoint Dewpoint Depression Visibility Wind Speed Wind Dir Waves Ship Positions

Oceanographic research ship Laurence M. Gould (USA)

Detailed information on ship capabilities available from University of Delaware's Ocean Information Center.

Owner: Offshore Service Vessels LLC, GALLIANO, LA. More information available from US FCC via Universal Licensing System and Coast Guard Vessel Documentation Center.

Last reported at 2015-May-27 20:00 UTC. Time now 2015-May-27 23:53 UTC.
Position S 64°42' W 064°00'.

Type: Other ship. MMSI: 368138000.

Wind from 200 at 5 knots

Barometer 1001.2 mb
Air temperature -3.9 ° C
Dewpoint -6.2 ° C

Date/timePositionNaut miles runAvg speedWind from/ knotsBaromVisibWave heightAir tempDewpointWater temp
2015-May-27 20:00S 64°42' W 064°00'0 0.0 200 / 51001.2 -3.9-6.2
2015-May-27 17:00S 64°42' W 064°00'0 0.0 220 / 5994.4 -3.7-6.9
2015-May-27 15:00S 64°42' W 064°00'0 0.0 230 / 4993.3 -3.8-6.9-1.0
2015-May-27 13:00S 64°42' W 064°00'6 3.0 220 / 4992.2 -4.1-7.3-1.0
2015-May-27 11:00S 64°48' W 064°00'3 2.6 260 / 10989.4 -4.5-7.3-0.8
2015-May-27 10:00S 64°48' W 063°54'0 0.0 260 / 7989.4 -4.6-7.3-0.7
2015-May-27 07:00S 64°48' W 063°54'3 2.6 230 / 6991.2 -3.7-7.0-0.7
2015-May-27 06:00S 64°48' W 064°00'0 0.0 260 / 7990.4 -3.8-7.1-0.8
2015-May-27 04:00S 64°48' W 064°00'18 1.8 260 / 6991.7 -3.4-7.4-0.8
2015-May-26 18:00S 65°06' W 064°06'7 3.3 080 / 7983.6 -4.6-8.8-1.5
2015-May-26 16:00S 65°12' W 064°12'0 0.0 060 / 5984.9 -5.2-8.7-1.3
2015-May-26 14:00S 65°12' W 064°12'0 0.0 050 / 5980.9 -5.4-8.6-1.3
2015-May-26 12:00S 65°12' W 064°12'0 0.0 040 / 4979.6 -6.0-9.2-1.0
2015-May-26 10:00S 65°12' W 064°12'0 0.0 060 / 3979.3 -5.8-9.9-1.3
2015-May-26 08:00S 65°12' W 064°12'0 0.0 060 / 5979.0 -5.9-10.0-1.4
2015-May-26 07:00S 65°12' W 064°12'0 0.0 050 / 5978.8 -5.9-9.3-1.3
2015-May-26 04:00S 65°12' W 064°12'0 0.0 200 / 6981.8 -3.9-8.6-1.4
2015-May-26 03:00S 65°12' W 064°12'8 3.9 110 / 3978.2 -5.2-9.5-1.6
2015-May-26 01:00S 65°06' W 064°00'8 2.6 020 / 2978.8 -4.9-9.9-1.5
2015-May-25 22:00S 65°00' W 063°48'19 4.7 250 / 4982.4 -3.3-9.4-1.1
2015-May-25 18:00S 64°42' W 064°00'0 0.0 210 / 7966.0 -3.0-7.3
2015-May-25 14:00S 64°42' W 064°00'0 0.0 230 / 7964.3 -3.3-7.9-0.6
2015-May-25 11:00S 64°42' W 064°00'0 0.0 190 / 4962.2 -3.3 -0.6
2015-May-25 09:00S 64°42' W 064°00'0 0.0 210 / 12963.1 -3.6 -0.6
2015-May-25 07:00S 64°42' W 064°00'0 0.0 230 / 8963.4 -3.2 -0.6
2015-May-25 05:00S 64°42' W 064°00'0 0.0 130 / 16962.0 -4.2 -0.6
2015-May-25 04:00S 64°42' W 064°00'0 0.0 130 / 15960.8 -4.5 -0.6
2015-May-25 01:00S 64°42' W 064°00'0 0.0 160 / 8954.8 -6.3 -0.6
2015-May-25 00:00S 64°42' W 064°00'0 0.0 160 / 8953.8 -6.6 -0.6
2015-May-24 22:00S 64°42' W 064°00'26 2.3 130 / 13952.3 -7.2 -0.6
2015-May-24 11:00S 64°42' W 063°00'0 0.0 230 / 6947.7 -6.6 -0.7
2015-May-24 08:00S 64°42' W 063°00'3 0.6 240 / 5946.7 -7.9 -0.7
2015-May-24 04:00S 64°42' W 062°54'0 0.0 120 / 23945.3 -8.3 -0.9
2015-May-24 02:00S 64°42' W 062°54'0 0.0 120 / 18946.0 -7.1 -0.8
2015-May-24 01:00S 64°42' W 062°54'36 6.0 120 / 18944.8 -8.1 -0.8
2015-May-23 19:00S 64°06' W 062°48'3 0.9 170 / 11950.0 -5.6 -0.3
2015-May-23 16:00S 64°06' W 062°42'12 4.1 080 / 13949.6 -5.9 -0.4
2015-May-23 13:00S 63°54' W 062°36'3 2.6 230 / 8951.2 -6.0 -0.7
2015-May-23 12:00S 63°54' W 062°42'0 0.0 090 / 14950.0 -5.2 -0.6
2015-May-23 08:00S 63°54' W 062°42'5 5.3 250 / 10951.4 -5.7 -0.6
2015-May-23 07:00S 63°54' W 062°54'3 0.4 230 / 12951.6 -5.4 -0.3
2015-May-23 01:00S 63°54' W 062°48'3 1.3 240 / 37952.9 -4.7 -0.5
2015-May-22 23:00S 63°54' W 062°42'6 6.0 240 / 32954.9 -4.1 -0.4
2015-May-22 22:00S 63°48' W 062°42'12 4.0 230 / 23955.9 -2.9 -0.4
2015-May-22 19:00S 64°00' W 062°42'6 6.0 030 / 17953.3 -3.9 -0.3
2015-May-22 18:00S 64°06' W 062°42'0 0.0 010 / 14954.5 -4.3 -0.5
2015-May-22 16:00S 64°06' W 062°42'12 4.0 030 / 11955.5 -3.7 -0.6
2015-May-22 13:00S 63°54' W 062°42'24 8.0 090 / 16953.3 -4.0 -0.3
2015-May-22 10:00S 63°30' W 062°42'3 2.7 360 / 5958.6 -1.6 -0.0
2015-May-22 09:00S 63°30' W 062°36'6 1.5 060 / 15958.7 -1.9 -0.1
2015-May-22 05:00S 63°24' W 062°36'0 0.0 060 / 12958.2 -2.5 -0.1
2015-May-21 20:00S 63°24' W 062°36'6 6.0 010 / 13957.5 -1.8 -0.1
2015-May-21 19:00S 63°30' W 062°36'6 2.0 040 / 12957.0 -1.5 -0.0
2015-May-21 16:00S 63°24' W 062°36'3 2.7 010 / 14956.3 -2.6 -0.1
2015-May-21 15:00S 63°24' W 062°42'7 3.3 040 / 15956.6 -2.3 -0.0
2015-May-21 13:00S 63°30' W 062°36'3 0.9 090 / 13962.6 -0.4 -0.0
2015-May-21 10:00S 63°30' W 062°42'0 0.0 080 / 21964.8 -0.4 -0.0
2015-May-21 07:00S 63°30' W 062°42'1212.3 100 / 26967.9 -1.1 -0.0
2015-May-21 06:00S 63°42' W 062°48'18 4.5 090 / 26968.0 -1.2 -0.1
2015-May-21 02:00S 64°00' W 062°54'0 0.0 070 / 20983.4 -0.6 -0.1
2015-May-21 01:00S 64°00' W 062°54'36 4.5 140 / 12986.9 -0.8 -0.2
2015-May-20 17:00S 64°36' W 062°54'10 9.8 060 / 34990.0 -2.7 -0.4
2015-May-20 16:00S 64°42' W 063°12'21 6.8 060 / 38986.0 -3.5 -0.1
2015-May-20 13:00S 64°42' W 064°00'0 0.0 150 / 4987.1 -2.3 -0.3
2015-May-20 12:00S 64°42' W 064°00'0 0.0 080 / 2988.9 -3.6 -0.3
2015-May-20 10:00S 64°42' W 064°00'0 0.0 090 / 2992.0 -3.9 -0.3
2015-May-20 07:00S 64°42' W 064°00'0 0.0 010 / 4996.4 -5.0 -0.3
2015-May-20 04:00S 64°42' W 064°00'0 0.0 060 / 4999.8 -5.5 -0.3
2015-May-20 03:00S 64°42' W 064°00'10 0.6 030 / 61000.4 -5.9 -0.3
2015-May-19 10:00S 64°48' W 063°42'24 7.9 270 / 22998.0 -3.6 -0.4
2015-May-19 07:00S 64°36' W 062°54'29 9.8 240 / 26994.6 -2.5 -0.6
2015-May-19 04:00S 64°18' W 062°00'3310.9 230 / 24991.9 -1.9 -0.6
2015-May-19 01:00S 63°48' W 061°30'7 6.6 240 / 13990.8 -2.2 -1.0
2015-May-19 00:00S 63°42' W 061°24'4310.8 250 / 21991.5 -3.1 -0.9
2015-May-18 20:00S 63°00' W 061°48'1313.2 240 / 24991.9 -3.0 -0.1
2015-May-18 19:00S 62°48' W 062°00'20 9.9 230 / 21991.8 -2.9 -0.0
2015-May-18 17:00S 62°30' W 062°18'19 9.4 240 / 20992.3 -2.5 0.1
2015-May-18 15:00S 62°12' W 062°30'18 9.1 250 / 27993.5 -2.3 -0.1
2015-May-18 13:00S 61°54' W 062°36'18 9.1 250 / 28994.0 -2.1 -0.1
2015-May-18 11:00S 61°36' W 062°42'36 9.1 250 / 28993.4 -1.7 -0.1
2015-May-18 07:00S 61°00' W 062°54'18 9.1 260 / 34991.7 -1.1 0.4
2015-May-18 05:00S 60°42' W 063°00'4310.7 260 / 30990.6 -0.6 0.3
2015-May-18 01:00S 60°00' W 063°18'24 8.1 280 / 27988.8 0.2 0.3
2015-May-17 22:00S 59°36' W 063°24'1212.4 260 / 29987.5 0.4 0.9
2015-May-17 21:00S 59°24' W 063°30'   260 / 27987.0 0.4 0.8

Dump ship's entire track history